Time;durP1;ratioP1;P1;durP2;ratioP2;P2;SDS_P1;SDS_P2;PMS_P1;PMS_P2;Temp;Humidity;BMP_temperature;BMP_pressure;BME280_temperature;BME280_humidity;BME280_pressure;Samples;Min_cycle;Max_cycle;Signal;HPM_P1;HPM_P2
2023/07/11 00:00:08;;;;;;;3.75;1.70;;;18.90;99.90;;;;;;5090005;28;20032;-80
2023/07/11 00:02:34;;;;;;;4.65;1.77;;;18.90;99.90;;;;;;5090660;28;20036;-80
2023/07/11 00:05:00;;;;;;;3.80;1.73;;;18.90;99.90;;;;;;5091590;28;20093;-80
2023/07/11 00:07:26;;;;;;;3.83;1.65;;;18.90;99.90;;;;;;5069770;28;20032;-80
2023/07/11 00:09:52;;;;;;;5.15;1.70;;;18.90;99.90;;;;;;5092397;28;20450;-79
2023/07/11 00:12:17;;;;;;;3.60;1.42;;;18.90;99.90;;;;;;5091713;28;20040;-80
2023/07/11 00:14:44;;;;;;;4.22;1.60;;;18.90;99.90;;;;;;5076362;28;20044;-80
2023/07/11 00:17:10;;;;;;;2.88;1.52;;;18.90;99.90;;;;;;5090948;28;20064;-79
2023/07/11 00:19:56;;;;;;;3.45;1.60;;;18.90;99.90;;;;;;5090436;28;20036;-79
2023/07/11 00:22:24;;;;;;;3.83;1.60;;;18.90;99.90;;;;;;5101523;28;20055;-79
2023/07/11 00:24:50;;;;;;;2.45;1.30;;;18.80;99.90;;;;;;5071849;28;20040;-79
2023/07/11 00:27:18;;;;;;;4.05;1.50;;;18.80;99.90;;;;;;5089433;28;20043;-79
2023/07/11 00:29:44;;;;;;;3.42;1.80;;;18.80;99.90;;;;;;5085493;28;20040;-79
2023/07/11 00:32:11;;;;;;;4.15;1.60;;;18.80;99.90;;;;;;5089392;28;20036;-77
2023/07/11 00:34:37;;;;;;;3.35;1.40;;;18.80;99.90;;;;;;5091921;28;20051;-79
2023/07/11 00:37:04;;;;;;;2.92;1.33;;;18.80;99.90;;;;;;5091518;28;20039;-78
2023/07/11 00:39:31;;;;;;;3.03;1.48;;;18.80;99.90;;;;;;5090140;28;20032;-79
2023/07/11 00:41:57;;;;;;;4.82;1.50;;;18.80;99.90;;;;;;5091752;28;20427;-79
2023/07/11 00:44:24;;;;;;;4.50;1.42;;;18.70;99.90;;;;;;5089547;28;20116;-79
2023/07/11 00:46:50;;;;;;;3.85;1.50;;;18.60;99.90;;;;;;5088866;28;20051;-79
2023/07/11 00:49:18;;;;;;;3.47;1.40;;;18.60;99.90;;;;;;5090599;28;20506;-79
2023/07/11 00:52:12;;;;;;;6.07;1.80;;;18.60;99.90;;;;;;5089992;28;20059;-80
2023/07/11 00:54:38;;;;;;;1.87;1.30;;;18.60;99.90;;;;;;5089380;28;20048;-79
2023/07/11 00:57:08;;;;;;;3.83;1.40;;;18.60;99.90;;;;;;5090749;28;20144;-79
2023/07/11 00:59:34;;;;;;;3.70;1.70;;;18.70;99.90;;;;;;5087520;28;20040;-79
2023/07/11 01:02:05;;;;;;;5.10;1.40;;;18.70;99.90;;;;;;5082455;28;20085;-79
2023/07/11 01:04:31;;;;;;;4.50;1.48;;;18.60;99.90;;;;;;5090393;28;20036;-79
2023/07/11 01:06:56;;;;;;;3.65;1.35;;;18.60;99.90;;;;;;5090641;28;20510;-79
2023/07/11 01:09:22;;;;;;;4.13;1.50;;;18.50;99.90;;;;;;5088453;28;20040;-78
2023/07/11 01:12:12;;;;;;;3.92;1.55;;;18.40;99.90;;;;;;5089019;28;20155;-79
2023/07/11 01:14:39;;;;;;;2.83;1.45;;;18.40;99.90;;;;;;5085140;28;20044;-80
2023/07/11 01:17:29;;;;;;;6.93;1.80;;;18.40;99.90;;;;;;5090724;28;20441;-79
2023/07/11 01:19:57;;;;;;;4.05;1.90;;;18.40;99.90;;;;;;5088092;28;20039;-80
2023/07/11 01:22:24;;;;;;;6.07;1.63;;;18.40;99.90;;;;;;5086453;28;20051;-79
2023/07/11 01:24:51;;;;;;;3.75;1.60;;;18.40;99.90;;;;;;5086732;28;20403;-78
2023/07/11 01:27:19;;;;;;;7.65;1.70;;;18.50;99.90;;;;;;5079868;28;20032;-79
2023/07/11 01:29:46;;;;;;;3.97;1.70;;;18.50;99.90;;;;;;5087844;28;20048;-80
2023/07/11 01:32:11;;;;;;;5.97;2.20;;;18.50;99.90;;;;;;5091184;28;20115;-80
2023/07/11 01:34:38;;;;;;;3.75;1.88;;;18.60;99.90;;;;;;5090799;28;20474;-80
2023/07/11 01:37:04;;;;;;;3.45;1.90;;;18.60;99.90;;;;;;5090184;28;20404;-80
2023/07/11 01:39:29;;;;;;;3.78;1.63;;;18.60;99.90;;;;;;5091629;28;20040;-80
2023/07/11 01:41:55;;;;;;;4.25;2.17;;;18.60;99.90;;;;;;5089723;28;20045;-80
2023/07/11 01:44:22;;;;;;;6.47;2.08;;;18.70;99.90;;;;;;5087608;28;20056;-80
2023/07/11 01:46:48;;;;;;;4.05;1.70;;;18.70;99.90;;;;;;5088797;28;20040;-81
2023/07/11 01:49:13;;;;;;;3.72;2.00;;;18.70;99.90;;;;;;5089949;28;20043;-80
2023/07/11 01:51:42;;;;;;;3.35;1.60;;;18.60;99.90;;;;;;5089936;28;20450;-80
2023/07/11 01:54:08;;;;;;;3.40;1.50;;;18.60;99.90;;;;;;5081418;28;20470;-79
2023/07/11 01:56:33;;;;;;;5.22;1.63;;;18.60;99.90;;;;;;5091190;28;20044;-80
2023/07/11 01:58:59;;;;;;;4.90;1.50;;;18.60;99.90;;;;;;5082398;28;20036;-80
2023/07/11 02:01:24;;;;;;;6.55;1.85;;;18.60;99.90;;;;;;5088565;28;20040;-80
2023/07/11 02:03:50;;;;;;;2.45;1.50;;;18.60;99.90;;;;;;5083583;28;20032;-79
2023/07/11 02:06:15;;;;;;;3.30;1.50;;;18.60;99.90;;;;;;5094730;28;20040;-79
2023/07/11 02:08:41;;;;;;;3.63;1.58;;;18.60;99.90;;;;;;5094832;28;20040;-79
2023/07/11 02:11:06;;;;;;;5.90;1.70;;;18.50;99.90;;;;;;5071579;28;20040;-78
2023/07/11 02:13:32;;;;;;;4.50;1.80;;;18.50;99.90;;;;;;5093679;28;20028;-80
2023/07/11 02:15:57;;;;;;;3.35;1.85;;;18.50;99.90;;;;;;5076292;28;20406;-79
2023/07/11 02:18:23;;;;;;;3.92;2.10;;;18.50;99.90;;;;;;5090441;28;20036;-79
2023/07/11 02:20:49;;;;;;;3.90;2.13;;;18.40;99.90;;;;;;5094109;28;20051;-79
2023/07/11 02:23:15;;;;;;;6.88;2.10;;;18.40;99.90;;;;;;5095260;28;20036;-80
2023/07/11 02:25:41;;;;;;;3.40;2.00;;;18.30;99.90;;;;;;5106059;28;20044;-80
2023/07/11 02:28:07;;;;;;;3.85;1.75;;;18.30;99.90;;;;;;5074094;28;20046;-80
2023/07/11 02:30:33;;;;;;;4.15;2.10;;;18.20;99.90;;;;;;5094102;28;20036;-79
2023/07/11 02:32:59;;;;;;;5.72;1.85;;;18.20;99.90;;;;;;5086119;28;20077;-79
2023/07/11 02:35:24;;;;;;;3.85;2.10;;;18.20;99.90;;;;;;5094605;28;20036;-79
2023/07/11 02:37:51;;;;;;;5.32;2.47;;;18.10;99.90;;;;;;5093599;28;20050;-79
2023/07/11 02:40:18;;;;;;;5.13;2.47;;;18.10;99.90;;;;;;5094507;28;20376;-79
2023/07/11 02:42:44;;;;;;;4.10;2.40;;;18.10;99.90;;;;;;5093665;28;20051;-79
2023/07/11 02:45:10;;;;;;;4.85;2.10;;;18.10;99.90;;;;;;5093453;28;20032;-80
2023/07/11 02:47:35;;;;;;;4.68;2.30;;;18.10;99.90;;;;;;5092419;28;20048;-77
2023/07/11 02:50:01;;;;;;;5.32;2.50;;;18.10;99.90;;;;;;5092949;28;20048;-80
2023/07/11 02:52:27;;;;;;;5.88;2.47;;;18.10;99.90;;;;;;5087660;28;20032;-80
2023/07/11 02:54:52;;;;;;;5.55;2.25;;;18.10;99.90;;;;;;5087177;28;20036;-80
2023/07/11 02:57:18;;;;;;;5.28;2.38;;;18.10;99.90;;;;;;5089974;28;20052;-79
2023/07/11 02:59:43;;;;;;;7.15;2.53;;;18.10;99.90;;;;;;5085977;28;20042;-79
2023/07/11 03:02:09;;;;;;;10.20;2.70;;;18.10;99.90;;;;;;5092120;28;20055;-80
2023/07/11 03:04:34;;;;;;;8.07;2.65;;;18.10;99.90;;;;;;5076121;28;20050;-80
2023/07/11 03:07:00;;;;;;;5.43;2.60;;;18.10;99.90;;;;;;5093537;28;20112;-80
2023/07/11 03:09:27;;;;;;;4.63;2.33;;;18.00;99.90;;;;;;5069899;28;20041;-78
2023/07/11 03:11:53;;;;;;;4.07;2.65;;;18.00;99.90;;;;;;5088813;28;20039;-79
2023/07/11 03:14:19;;;;;;;7.43;2.70;;;18.00;99.90;;;;;;5088618;28;20066;-80
2023/07/11 03:16:50;;;;;;;4.57;2.78;;;18.00;99.90;;;;;;5091290;28;20051;-76
2023/07/11 03:19:15;;;;;;;10.63;2.92;;;18.00;99.90;;;;;;5089769;28;20063;-80
2023/07/11 03:21:41;;;;;;;4.20;2.83;;;18.00;99.90;;;;;;5094032;28;20040;-79
2023/07/11 03:24:06;;;;;;;6.18;2.85;;;17.90;99.90;;;;;;5090954;28;20115;-80
2023/07/11 03:26:32;;;;;;;6.95;2.90;;;17.90;99.90;;;;;;5084108;28;20130;-80
2023/07/11 03:28:57;;;;;;;6.63;2.63;;;17.80;99.90;;;;;;5092411;28;20044;-80
2023/07/11 03:31:23;;;;;;;4.35;2.30;;;17.80;99.90;;;;;;5085292;28;20032;-77
2023/07/11 03:33:48;;;;;;;7.30;2.63;;;17.80;99.90;;;;;;5108513;28;20047;-78
2023/07/11 03:36:14;;;;;;;6.65;2.80;;;17.80;99.90;;;;;;5090914;28;20037;-78
2023/07/11 03:38:40;;;;;;;6.20;2.60;;;17.70;99.90;;;;;;5089753;28;20032;-79
2023/07/11 03:41:05;;;;;;;4.47;2.40;;;17.70;99.90;;;;;;5091944;28;20039;-79
2023/07/11 03:43:31;;;;;;;5.72;2.28;;;17.70;99.90;;;;;;5088254;28;20078;-80
2023/07/11 03:45:57;;;;;;;4.65;2.40;;;17.70;99.90;;;;;;5086554;28;20511;-78
2023/07/11 03:48:22;;;;;;;4.15;2.40;;;17.70;99.90;;;;;;5082026;28;20040;-78
2023/07/11 03:50:48;;;;;;;9.35;2.42;;;17.80;99.90;;;;;;5064334;28;20039;-79
2023/07/11 03:53:13;;;;;;;5.07;2.55;;;17.80;99.90;;;;;;5084582;28;20583;-79
2023/07/11 03:55:42;;;;;;;7.65;2.65;;;17.80;99.90;;;;;;5079321;28;20127;-79
2023/07/11 03:58:08;;;;;;;5.97;2.40;;;17.80;99.90;;;;;;5087814;28;20541;-79
2023/07/11 04:00:34;;;;;;;4.72;2.58;;;17.80;99.90;;;;;;5089494;28;20522;-79
2023/07/11 04:02:59;;;;;;;6.03;2.47;;;17.80;99.90;;;;;;5089688;28;20040;-79
2023/07/11 04:05:25;;;;;;;5.05;2.90;;;17.80;99.90;;;;;;5084594;28;20152;-79
2023/07/11 04:07:51;;;;;;;5.63;2.67;;;17.80;99.90;;;;;;5092080;28;20044;-78
2023/07/11 04:10:16;;;;;;;7.53;2.30;;;17.80;99.90;;;;;;5090157;28;20111;-79
2023/07/11 04:12:42;;;;;;;7.15;2.45;;;17.80;99.90;;;;;;5091067;28;20044;-79
2023/07/11 04:15:08;;;;;;;6.32;2.58;;;17.80;99.90;;;;;;5091649;28;20051;-79
2023/07/11 04:17:33;;;;;;;4.65;2.55;;;17.80;99.90;;;;;;5074112;28;20094;-79
2023/07/11 04:19:59;;;;;;;5.70;2.60;;;17.80;99.90;;;;;;5089631;28;20553;-79
2023/07/11 04:22:24;;;;;;;6.10;2.80;;;17.70;99.90;;;;;;5092388;28;20451;-79
2023/07/11 04:24:50;;;;;;;5.05;2.60;;;17.70;99.90;;;;;;5091916;28;20367;-80
2023/07/11 04:27:16;;;;;;;5.55;2.50;;;17.80;99.90;;;;;;5090734;28;20044;-79
2023/07/11 04:29:41;;;;;;;4.80;2.38;;;17.80;99.90;;;;;;5091051;28;20526;-79
2023/07/11 04:32:07;;;;;;;5.88;2.70;;;17.80;99.90;;;;;;5089967;28;20032;-79
2023/07/11 04:34:33;;;;;;;6.40;3.00;;;17.80;99.90;;;;;;5089422;28;20093;-80
2023/07/11 04:36:58;;;;;;;6.13;2.83;;;17.80;99.90;;;;;;5090662;28;20427;-79
2023/07/11 04:39:24;;;;;;;7.05;3.10;;;17.80;99.90;;;;;;5091005;28;20388;-79
2023/07/11 04:41:49;;;;;;;4.65;2.80;;;17.80;99.90;;;;;;5092246;28;20036;-78
2023/07/11 04:44:15;;;;;;;9.13;2.90;;;17.80;99.90;;;;;;5089625;28;20051;-79
2023/07/11 04:46:41;;;;;;;6.05;3.10;;;17.80;99.90;;;;;;5090899;28;20518;-79
2023/07/11 04:49:07;;;;;;;4.20;2.97;;;17.80;99.90;;;;;;5086389;28;20035;-79
2023/07/11 04:51:32;;;;;;;8.20;3.13;;;17.80;99.90;;;;;;5091099;28;20526;-79
2023/07/11 04:53:58;;;;;;;7.28;3.15;;;17.70;99.90;;;;;;5071688;28;20039;-79
2023/07/11 04:56:23;;;;;;;7.28;3.40;;;17.70;99.90;;;;;;5087640;28;20515;-79
2023/07/11 04:58:49;;;;;;;7.47;3.05;;;17.70;99.90;;;;;;5084020;28;20043;-79
2023/07/11 05:01:16;;;;;;;5.35;3.15;;;17.70;99.90;;;;;;5065922;28;20047;-79
2023/07/11 05:03:44;;;;;;;6.72;3.10;;;17.80;99.90;;;;;;5089194;28;20036;-79
2023/07/11 05:06:12;;;;;;;5.50;2.95;;;17.90;99.90;;;;;;5082427;28;20499;-77
2023/07/11 05:08:38;;;;;;;6.55;3.33;;;18.00;99.90;;;;;;5090119;28;20051;-80
2023/07/11 05:11:07;;;;;;;5.65;3.40;;;18.10;99.90;;;;;;5091575;28;20448;-78
2023/07/11 05:13:33;;;;;;;5.75;3.35;;;18.10;99.90;;;;;;5091216;28;20092;-80
2023/07/11 05:16:04;;;;;;;7.85;3.58;;;18.10;99.90;;;;;;5088314;28;20105;-79
2023/07/11 05:18:29;;;;;;;8.90;3.65;;;18.30;99.90;;;;;;5089652;28;20396;-80
2023/07/11 05:20:56;;;;;;;6.97;3.67;;;18.40;99.90;;;;;;5089506;28;20042;-78
2023/07/11 05:23:24;;;;;;;8.13;3.70;;;18.60;99.90;;;;;;5090153;28;20761;-78
2023/07/11 05:25:50;;;;;;;8.25;4.00;;;18.70;99.90;;;;;;5091457;28;20130;-79
2023/07/11 05:28:16;;;;;;;9.05;3.78;;;18.80;99.90;;;;;;5067137;28;20067;-78
2023/07/11 05:30:42;;;;;;;7.15;3.88;;;19.00;99.90;;;;;;5080210;28;20039;-80
2023/07/11 05:33:07;;;;;;;10.52;4.63;;;19.00;99.90;;;;;;5090346;28;20075;-80
2023/07/11 05:35:37;;;;;;;8.63;4.25;;;19.10;99.90;;;;;;5089969;28;20059;-81
2023/07/11 05:38:03;;;;;;;7.75;4.32;;;19.30;99.90;;;;;;5079113;28;20526;-80
2023/07/11 05:40:30;;;;;;;7.53;4.35;;;19.30;99.90;;;;;;5081638;28;20032;-80
2023/07/11 05:42:56;;;;;;;9.02;4.60;;;19.40;99.90;;;;;;5083869;28;20528;-80
2023/07/11 05:45:21;;;;;;;9.68;4.70;;;19.40;99.90;;;;;;5091590;28;20040;-80
2023/07/11 05:47:47;;;;;;;8.13;4.75;;;19.40;99.90;;;;;;5090219;28;20044;-79
2023/07/11 05:50:12;;;;;;;10.60;4.60;;;19.40;99.90;;;;;;5081560;28;20499;-80
2023/07/11 05:52:38;;;;;;;8.40;4.63;;;19.40;99.90;;;;;;5082618;28;20048;-80
2023/07/11 05:55:04;;;;;;;5.90;4.38;;;19.50;99.90;;;;;;5080719;28;20040;-80
2023/07/11 05:57:29;;;;;;;10.88;5.00;;;19.60;99.90;;;;;;5094552;28;20042;-80
2023/07/11 05:59:55;;;;;;;5.97;4.50;;;19.70;99.90;;;;;;5074645;28;20168;-81
2023/07/11 06:02:20;;;;;;;11.27;4.85;;;19.80;99.90;;;;;;5095302;28;20081;-79
2023/07/11 06:04:46;;;;;;;6.70;4.38;;;19.90;99.90;;;;;;5095387;28;20036;-79
2023/07/11 06:07:11;;;;;;;9.63;4.82;;;20.00;99.90;;;;;;5093961;28;20036;-79
2023/07/11 06:09:37;;;;;;;8.55;4.72;;;20.00;99.90;;;;;;5093789;28;20044;-79
2023/07/11 06:12:02;;;;;;;11.35;4.90;;;19.90;99.90;;;;;;5097867;28;20040;-80
2023/07/11 06:14:28;;;;;;;6.20;4.40;;;20.00;99.90;;;;;;5096919;28;20062;-79
2023/07/11 06:16:53;;;;;;;9.32;4.57;;;20.20;99.90;;;;;;5097624;28;20123;-77
2023/07/11 06:19:19;;;;;;;8.52;4.65;;;20.30;99.90;;;;;;5092865;28;20032;-79
2023/07/11 06:21:45;;;;;;;7.53;4.55;;;20.40;99.90;;;;;;5073648;28;20090;-80
2023/07/11 06:24:10;;;;;;;9.05;4.53;;;20.60;99.90;;;;;;5095178;28;20035;-78
2023/07/11 06:26:36;;;;;;;8.35;4.45;;;20.80;99.90;;;;;;5093867;28;20071;-79
2023/07/11 06:29:01;;;;;;;8.48;4.38;;;21.00;99.90;;;;;;5094280;28;20483;-79
2023/07/11 06:31:27;;;;;;;9.82;5.10;;;21.10;99.90;;;;;;5094546;28;20047;-79
2023/07/11 06:33:52;;;;;;;8.10;4.40;;;21.10;99.90;;;;;;5069382;28;20037;-79
2023/07/11 06:36:18;;;;;;;8.77;4.32;;;21.20;99.90;;;;;;5090221;28;20032;-80
2023/07/11 06:38:43;;;;;;;11.75;4.40;;;21.10;99.90;;;;;;5092747;28;20036;-80
2023/07/11 06:41:09;;;;;;;10.60;4.28;;;21.20;99.90;;;;;;5084065;28;20040;-80
2023/07/11 06:43:34;;;;;;;9.57;5.05;;;21.30;99.90;;;;;;5091596;28;20031;-81
2023/07/11 06:46:03;;;;;;;9.35;4.00;;;21.40;99.90;;;;;;5074146;28;20082;-81
2023/07/11 06:48:31;;;;;;;10.13;4.40;;;21.50;99.90;;;;;;5089114;28;20066;-79
2023/07/11 06:50:59;;;;;;;8.82;4.00;;;21.60;99.90;;;;;;5071032;28;20040;-81
2023/07/11 06:53:27;;;;;;;7.72;4.07;;;21.70;99.90;;;;;;5096821;28;20078;-80
2023/07/11 06:55:53;;;;;;;8.73;4.25;;;21.90;99.90;;;;;;5072474;28;20048;-81
2023/07/11 06:58:20;;;;;;;10.10;4.20;;;22.00;99.90;;;;;;5095398;28;20036;-80
2023/07/11 07:00:53;;;;;;;11.30;4.60;;;22.00;99.90;;;;;;5095992;28;20441;-82
2023/07/11 07:03:19;;;;;;;7.90;4.60;;;22.00;99.90;;;;;;5090513;28;20028;-81
2023/07/11 07:05:56;;;;;;;8.02;3.97;;;22.10;99.90;;;;;;5091592;28;20048;-81
2023/07/11 07:08:23;;;;;;;8.20;4.03;;;22.20;99.90;;;;;;5093618;28;20075;-81
2023/07/11 07:10:49;;;;;;;7.68;3.80;;;22.40;99.90;;;;;;5072571;28;20040;-81
2023/07/11 07:13:17;;;;;;;11.82;4.00;;;22.70;99.90;;;;;;5095334;28;20069;-81
2023/07/11 07:15:47;;;;;;;8.38;3.88;;;22.80;99.90;;;;;;5088488;28;20036;-81
2023/07/11 07:18:12;;;;;;;6.75;4.10;;;22.80;99.90;;;;;;5093257;28;20087;-82
2023/07/11 07:20:38;;;;;;;8.40;3.85;;;22.90;99.90;;;;;;5096542;28;20056;-81
2023/07/11 07:23:05;;;;;;;7.88;4.15;;;22.90;99.90;;;;;;5094937;28;20063;-81
2023/07/11 07:25:30;;;;;;;7.35;4.03;;;22.90;99.90;;;;;;5092728;28;20081;-80
2023/07/11 07:27:57;;;;;;;5.88;3.53;;;23.00;99.90;;;;;;5064640;28;20485;-79
2023/07/11 07:30:23;;;;;;;7.97;4.10;;;23.00;99.90;;;;;;5078614;28;20066;-81
2023/07/11 07:32:49;;;;;;;9.95;3.92;;;23.00;99.90;;;;;;5087763;28;20032;-81
2023/07/11 07:35:14;;;;;;;7.47;3.67;;;23.00;99.90;;;;;;5080076;28;20032;-80
2023/07/11 07:37:40;;;;;;;7.53;4.00;;;23.10;99.90;;;;;;5080366;28;20044;-80
2023/07/11 07:40:06;;;;;;;6.97;3.88;;;23.10;99.90;;;;;;5087204;28;20028;-81
2023/07/11 07:42:32;;;;;;;6.15;4.05;;;23.10;99.90;;;;;;5082419;28;20033;-81
2023/07/11 07:44:58;;;;;;;7.43;4.07;;;23.20;99.90;;;;;;5078219;28;20054;-80
2023/07/11 07:47:23;;;;;;;7.05;3.42;;;23.20;99.90;;;;;;5079779;28;20044;-81
2023/07/11 07:49:49;;;;;;;7.78;3.90;;;23.20;99.90;;;;;;5078584;28;20654;-79
2023/07/11 07:52:14;;;;;;;6.55;3.45;;;23.20;99.90;;;;;;5083025;28;20135;-80
2023/07/11 07:54:40;;;;;;;7.25;3.55;;;23.30;99.90;;;;;;5093661;28;20039;-80
2023/07/11 07:57:05;;;;;;;8.48;4.07;;;23.30;99.90;;;;;;5086732;28;20465;-81
2023/07/11 07:59:31;;;;;;;5.50;3.50;;;23.30;99.90;;;;;;5081473;28;20039;-80
2023/07/11 08:01:57;;;;;;;5.18;3.40;;;23.40;99.90;;;;;;5076516;28;20455;-81
2023/07/11 08:04:23;;;;;;;6.25;3.33;;;23.60;99.90;;;;;;5080175;28;20492;-80
2023/07/11 08:06:48;;;;;;;7.32;3.33;;;23.70;99.90;;;;;;5076887;28;20133;-80
2023/07/11 08:09:14;;;;;;;7.40;3.55;;;23.80;99.90;;;;;;5061009;28;20048;-80
2023/07/11 08:11:43;;;;;;;9.43;3.38;;;23.90;99.90;;;;;;5086788;28;20039;-79
2023/07/11 08:14:08;;;;;;;9.95;3.47;;;24.10;99.90;;;;;;5056714;28;20086;-81
2023/07/11 08:16:34;;;;;;;14.80;3.72;;;24.20;99.90;;;;;;5075656;28;20052;-82
2023/07/11 08:19:04;;;;;;;7.60;3.53;;;24.30;99.90;;;;;;5058333;28;20097;-77
2023/07/11 08:21:30;;;;;;;7.75;3.33;;;24.30;99.90;;;;;;5085846;28;20028;-79
2023/07/11 08:23:55;;;;;;;8.38;3.40;;;24.20;99.90;;;;;;5086933;28;20044;-79
2023/07/11 08:26:22;;;;;;;6.07;3.10;;;24.10;99.90;;;;;;5069922;28;20065;-79
2023/07/11 08:28:49;;;;;;;6.10;3.00;;;24.00;99.90;;;;;;5058297;28;20040;-79
2023/07/11 08:31:14;;;;;;;6.03;3.13;;;24.00;99.90;;;;;;5078926;28;20055;-79
2023/07/11 08:33:40;;;;;;;6.60;3.30;;;24.00;99.90;;;;;;5086802;28;20499;-81
2023/07/11 08:36:05;;;;;;;7.72;3.28;;;24.00;99.90;;;;;;5081473;28;20047;-78
2023/07/11 08:38:31;;;;;;;5.70;2.72;;;24.10;99.90;;;;;;5075202;28;20416;-80
2023/07/11 08:40:57;;;;;;;8.25;3.30;;;24.10;99.90;;;;;;5081203;28;20047;-79
2023/07/11 08:43:29;;;;;;;6.63;3.00;;;24.00;99.90;;;;;;5089168;28;20047;-79
2023/07/11 08:46:05;;;;;;;6.70;2.85;;;24.10;99.90;;;;;;5084353;28;20424;-80
2023/07/11 08:48:42;;;;;;;7.65;3.25;;;24.20;99.90;;;;;;5087283;28;20484;-79
2023/07/11 08:51:30;;;;;;;10.63;3.22;;;24.30;99.90;;;;;;5091104;28;20036;-77
2023/07/11 08:54:12;;;;;;;13.13;3.20;;;24.40;99.90;;;;;;5093599;28;20051;-80
2023/07/11 08:56:43;;;;;;;7.13;2.85;;;24.70;99.90;;;;;;5089860;28;20047;-77
2023/07/11 08:59:28;;;;;;;5.40;2.63;;;24.90;99.90;;;;;;5093879;28;20400;-80
2023/07/11 09:02:02;;;;;;;6.30;2.53;;;25.10;99.90;;;;;;5093114;28;20109;-79
2023/07/11 09:04:29;;;;;;;8.45;2.50;;;25.20;99.90;;;;;;5078685;28;20129;-79
2023/07/11 09:07:02;;;;;;;5.18;2.60;;;25.50;99.90;;;;;;5094836;28;20499;-79
2023/07/11 09:09:28;;;;;;;;;;;25.70;99.90;;;;;;5094851;28;20502;-78
2023/07/11 09:11:59;;;;;;;4.65;2.50;;;25.80;99.90;;;;;;5094182;28;19916;-79
2023/07/11 09:15:03;;;;;;;6.50;2.40;;;25.90;99.90;;;;;;5094457;28;20411;-79
2023/07/11 09:17:49;;;;;;;5.85;2.35;;;25.90;99.90;;;;;;5095405;28;20032;-81
2023/07/11 09:20:21;;;;;;;6.22;2.28;;;26.20;99.90;;;;;;5087834;28;20447;-80
2023/07/11 09:23:13;;;;;;;5.45;2.30;;;26.30;99.90;;;;;;5093819;28;20128;-79
2023/07/11 09:25:42;;;;;;;6.78;2.20;;;26.50;99.90;;;;;;5091932;28;20028;-80
2023/07/11 09:28:23;;;;;;;6.38;2.08;;;26.60;99.90;;;;;;5083905;28;20071;-81
2023/07/11 09:30:59;;;;;;;4.53;2.25;;;26.60;99.90;;;;;;5091767;28;20077;-80
2023/07/11 09:33:32;;;;;;;5.75;2.10;;;26.60;99.90;;;;;;5093457;28;20070;-81
2023/07/11 09:35:59;;;;;;;3.83;1.70;;;26.50;99.90;;;;;;5092061;28;20518;-80
2023/07/11 09:38:40;;;;;;;7.40;1.77;;;26.50;99.90;;;;;;5077567;28;20055;-80
2023/07/11 09:41:15;;;;;;;6.00;1.80;;;26.40;99.90;;;;;;5067298;28;20495;-79
2023/07/11 09:43:40;;;;;;;6.30;2.00;;;26.60;99.90;;;;;;5073390;28;20062;-81
2023/07/11 09:46:20;;;;;;;17.27;4.22;;;26.70;99.90;;;;;;5092497;28;20040;-80
2023/07/11 09:48:50;;;;;;;10.10;2.20;;;26.70;99.90;;;;;;5094404;28;20055;-80
2023/07/11 09:51:25;;;;;;;6.15;2.10;;;26.80;99.90;;;;;;5090972;28;20055;-79
2023/07/11 09:53:55;;;;;;;4.47;1.80;;;26.80;99.90;;;;;;5090677;28;20039;-80
2023/07/11 09:56:23;;;;;;;5.28;1.90;;;26.80;99.90;;;;;;5092800;28;20036;-80
2023/07/11 09:58:52;;;;;;;4.07;1.85;;;26.80;99.90;;;;;;5076474;28;20051;-80
2023/07/11 10:01:31;;;;;;;6.75;1.73;;;26.70;99.90;;;;;;5077144;28;20491;-80
2023/07/11 10:03:58;;;;;;;6.68;1.90;;;26.70;99.90;;;;;;5087693;28;20051;-79
2023/07/11 10:06:51;;;;;;;7.13;2.08;;;26.90;99.90;;;;;;5093542;28;20070;-79
2023/07/11 10:09:22;;;;;;;5.88;1.90;;;27.00;99.90;;;;;;5092439;28;20044;-78
2023/07/11 10:11:55;;;;;;;5.70;1.73;;;26.80;99.90;;;;;;5092411;28;20097;-81
2023/07/11 10:14:26;;;;;;;4.65;1.65;;;26.80;99.90;;;;;;5091983;28;20035;-80
2023/07/11 10:16:53;;;;;;;4.47;2.00;;;26.90;99.90;;;;;;5076101;28;20033;-79
2023/07/11 10:19:19;;;;;;;5.97;2.22;;;27.00;99.90;;;;;;5090863;28;20032;-78
2023/07/11 10:21:48;;;;;;;6.80;2.88;;;27.10;99.90;;;;;;5092835;28;20121;-80
2023/07/11 10:24:17;;;;;;;7.13;2.20;;;27.10;99.90;;;;;;5089066;28;20040;-78
2023/07/11 10:26:46;;;;;;;5.75;2.10;;;27.10;99.90;;;;;;5095633;28;20036;-81
2023/07/11 10:29:19;;;;;;;8.25;2.10;;;27.30;99.90;;;;;;5097387;28;20051;-79
2023/07/11 10:32:03;;;;;;;7.10;2.38;;;27.40;99.90;;;;;;5080262;28;20044;-80
2023/07/11 10:34:37;;;;;;;5.45;1.92;;;27.60;99.90;;;;;;5095394;28;20040;-79
2023/07/11 10:37:29;;;;;;;5.53;2.00;;;27.60;99.90;;;;;;5095899;28;20072;-80
2023/07/11 10:40:13;;;;;;;3.40;1.67;;;27.60;99.90;;;;;;5092936;28;20043;-79
2023/07/11 10:42:44;;;;;;;5.03;1.83;;;27.70;99.90;;;;;;5095263;28;20067;-80
2023/07/11 10:45:18;;;;;;;5.95;2.38;;;27.90;99.90;;;;;;5095217;28;20040;-79
2023/07/11 10:48:21;;;;;;;5.18;1.70;;;28.10;99.90;;;;;;5092257;28;20406;-81
2023/07/11 10:51:07;;;;;;;6.25;2.20;;;28.20;99.90;;;;;;5094613;28;20131;-80
2023/07/11 10:53:47;;;;;;;5.80;2.10;;;28.10;99.90;;;;;;5093423;28;20407;-79
2023/07/11 10:56:20;;;;;;;5.65;2.42;;;28.10;99.90;;;;;;5087392;28;20042;-78
2023/07/11 10:58:46;;;;;;;8.25;2.25;;;28.10;99.90;;;;;;5068424;28;20040;-79
2023/07/11 11:01:33;;;;;;;8.30;2.38;;;28.10;99.90;;;;;;5082558;28;20515;-79
2023/07/11 11:04:08;;;;;;;4.35;2.03;;;28.20;99.90;;;;;;5064064;28;20036;-79
2023/07/11 11:06:39;;;;;;;4.72;2.08;;;28.50;99.90;;;;;;5084562;28;20040;-79
2023/07/11 11:09:16;;;;;;;6.18;2.20;;;28.60;99.90;;;;;;5081667;28;20055;-79
2023/07/11 11:12:20;;;;;;;7.60;2.83;;;28.70;99.90;;;;;;5090153;28;20051;-79
2023/07/11 11:15:12;;;;;;;6.05;2.17;;;28.70;99.90;;;;;;5089152;28;20091;-79
2023/07/11 11:18:06;;;;;;;3.80;1.80;;;28.70;99.90;;;;;;5078611;28;20048;-78
2023/07/11 11:21:01;;;;;;;4.70;1.80;;;28.80;99.90;;;;;;5083722;28;20035;-79
2023/07/11 11:23:50;;;;;;;4.72;2.00;;;29.00;99.90;;;;;;5070315;28;20032;-78
2023/07/11 11:26:45;;;;;;;5.38;2.15;;;29.30;99.90;;;;;;5088804;28;20078;-79
2023/07/11 11:29:21;;;;;;;6.47;2.22;;;29.40;99.90;;;;;;5072177;28;20059;-78
2023/07/11 11:32:07;;;;;;;6.70;2.20;;;29.50;99.90;;;;;;5085025;28;20039;-79
2023/07/11 11:34:49;;;;;;;7.88;2.22;;;29.70;99.90;;;;;;5082574;28;20059;-80
2023/07/11 11:37:56;;;;;;;5.55;2.20;;;29.80;99.70;;;;;;5087416;28;20044;-79
2023/07/11 11:40:25;;;;;;;6.43;2.25;;;29.70;99.00;;;;;;5078236;28;20476;-80
2023/07/11 11:43:11;;;;;;;6.55;1.98;;;30.00;99.00;;;;;;5084872;28;20091;-80
2023/07/11 11:45:37;;;;;;;4.88;1.85;;;30.00;97.00;;;;;;5081911;28;20123;-80
2023/07/11 11:48:04;;;;;;;5.82;2.10;;;30.10;98.40;;;;;;5083622;28;20071;-80
2023/07/11 11:50:31;;;;;;;5.30;2.25;;;30.10;98.50;;;;;;5081166;28;20086;-79
2023/07/11 11:53:17;;;;;;;6.55;2.30;;;30.10;99.10;;;;;;5079702;28;20040;-78
2023/07/11 11:55:58;;;;;;;6.03;2.30;;;30.10;99.10;;;;;;5082483;28;20044;-78
2023/07/11 11:58:26;;;;;;;6.03;2.30;;;30.40;99.20;;;;;;5084529;28;20040;-79
2023/07/11 12:00:57;;;;;;;5.72;2.22;;;30.50;98.60;;;;;;5081134;28;20123;-79
2023/07/11 12:03:32;;;;;;;7.25;2.33;;;30.70;98.50;;;;;;5080786;28;20089;-79
2023/07/11 12:06:22;;;;;;;5.57;2.13;;;30.60;98.10;;;;;;5064903;28;20044;-78
2023/07/11 12:09:16;;;;;;;9.00;2.38;;;30.70;98.10;;;;;;5084121;28;20036;-79
2023/07/11 12:12:09;;;;;;;4.30;1.98;;;31.00;97.80;;;;;;5084281;28;20032;-78
2023/07/11 12:14:44;;;;;;;8.80;2.38;;;31.20;98.30;;;;;;5082802;28;20457;-77
2023/07/11 12:17:39;;;;;;;10.60;1.95;;;31.50;97.60;;;;;;5103977;28;20044;-79
2023/07/11 12:20:08;;;;;;;3.85;2.10;;;31.50;97.50;;;;;;5066699;28;20045;-78
2023/07/11 12:22:36;;;;;;;5.00;2.00;;;31.50;97.10;;;;;;5104824;28;20036;-79
2023/07/11 12:25:27;;;;;;;7.80;2.58;;;31.40;96.50;;;;;;5081597;28;20066;-79
2023/07/11 12:28:01;;;;;;;5.93;2.17;;;31.30;97.20;;;;;;5064446;28;20146;-78
2023/07/11 12:30:27;;;;;;;6.20;2.15;;;31.20;96.90;;;;;;5082831;28;20035;-79
2023/07/11 12:32:54;;;;;;;7.38;2.45;;;31.10;96.80;;;;;;5081838;28;20521;-78
2023/07/11 12:35:23;;;;;;;7.88;2.40;;;30.80;96.90;;;;;;5080955;28;20035;-78
2023/07/11 12:38:00;;;;;;;6.32;2.28;;;30.60;97.30;;;;;;5078744;28;20040;-77
2023/07/11 12:40:44;;;;;;;5.75;2.20;;;30.80;97.40;;;;;;5082787;28;20040;-78
2023/07/11 12:43:23;;;;;;;7.47;2.35;;;30.80;97.40;;;;;;5080485;28;20036;-79
2023/07/11 12:45:53;;;;;;;7.45;2.72;;;30.90;97.50;;;;;;5076996;28;20023;-79
2023/07/11 12:48:25;;;;;;;6.28;2.08;;;30.90;97.10;;;;;;5080138;28;20050;-81
2023/07/11 12:50:53;;;;;;;6.43;2.50;;;30.80;97.30;;;;;;5083915;28;20506;-78
2023/07/11 12:53:19;;;;;;;5.93;2.40;;;30.50;97.40;;;;;;5085138;28;20037;-78
2023/07/11 12:55:48;;;;;;;5.35;2.30;;;30.50;97.60;;;;;;5076089;28;20031;-79
2023/07/11 12:58:29;;;;;;;4.78;2.25;;;30.40;97.60;;;;;;5082971;28;20514;-77